Time;durP1;ratioP1;P1;durP2;ratioP2;P2;SDS_P1;SDS_P2;PMS_P1;PMS_P2;Temp;Humidity;BMP_temperature;BMP_pressure;BME280_temperature;BME280_humidity;BME280_pressure;Samples;Min_cycle;Max_cycle;Signal;HPM_P1;HPM_P2
2023/11/09 00:01:04;;;;;;;2.75;1.50;;;;;;;21.13;82.03;100053.50;5087326;28;20024;-49
2023/11/09 00:03:30;;;;;;;3.40;1.40;;;;;;;21.13;81.49;100038.94;5087654;28;20032;-50
2023/11/09 00:05:56;;;;;;;3.28;1.20;;;;;;;21.12;81.53;100040.06;5082543;28;20044;-49
2023/11/09 00:08:23;;;;;;;1.88;1.38;;;;;;;21.09;81.30;100044.28;5087078;28;20047;-49
2023/11/09 00:10:49;;;;;;;3.42;1.70;;;;;;;21.09;81.05;100041.50;5085499;28;20031;-50
2023/11/09 00:13:14;;;;;;;2.30;1.25;;;;;;;21.09;80.91;100046.19;5082797;28;20020;-50
2023/11/09 00:15:40;;;;;;;2.20;1.30;;;;;;;21.07;80.75;100038.25;5086576;28;20069;-51
2023/11/09 00:18:05;;;;;;;2.08;1.20;;;;;;;21.05;80.45;100029.47;5079720;28;20038;-52
2023/11/09 00:20:30;;;;;;;2.47;1.27;;;;;;;21.05;80.28;100036.94;5084064;28;20024;-49
2023/11/09 00:22:56;;;;;;;1.92;1.20;;;;;;;21.03;80.39;100028.19;5080792;28;20427;-51
2023/11/09 00:25:21;;;;;;;2.53;1.08;;;;;;;21.02;80.52;100029.31;5086827;28;20032;-52
2023/11/09 00:27:47;;;;;;;1.95;1.15;;;;;;;21.00;80.33;100021.38;5072803;28;20028;-53
2023/11/09 00:30:12;;;;;;;2.65;1.40;;;;;;;20.99;80.25;100025.25;5076179;28;20632;-40
2023/11/09 00:32:37;;;;;;;2.95;1.38;;;;;;;20.98;80.20;100020.84;5073996;28;20033;-41
2023/11/09 00:35:08;;;;;;;1.75;1.20;;;;;;;20.97;79.86;100014.56;5079967;28;20020;-41
2023/11/09 00:37:33;;;;;;;1.50;0.98;;;;;;;20.96;80.10;100018.44;5078753;28;20126;-41
2023/11/09 00:40:04;;;;;;;1.35;1.20;;;;;;;20.95;80.12;100019.56;5080664;28;20028;-40
2023/11/09 00:42:29;;;;;;;2.85;1.38;;;;;;;20.94;79.93;100008.84;5079691;28;20506;-40
2023/11/09 00:44:54;;;;;;;2.30;1.40;;;;;;;20.93;80.19;100008.06;5083097;28;20090;-41
2023/11/09 00:47:21;;;;;;;1.23;1.00;;;;;;;20.92;79.96;100017.44;5070659;28;20435;-41
2023/11/09 00:49:46;;;;;;;2.97;1.23;;;;;;;20.91;79.87;100010.31;5080828;28;20111;-41
2023/11/09 00:52:12;;;;;;;2.90;1.48;;;;;;;20.90;79.80;100011.44;5070619;28;20110;-41
2023/11/09 00:54:37;;;;;;;1.15;1.00;;;;;;;20.90;79.90;100003.16;5074189;28;20487;-41
2023/11/09 00:57:03;;;;;;;2.20;1.40;;;;;;;20.90;79.65;100005.94;5077019;28;20058;-41
2023/11/09 00:59:28;;;;;;;2.65;1.40;;;;;;;20.89;79.77;100003.50;5074516;28;20438;-40
2023/11/09 01:01:53;;;;;;;2.30;1.35;;;;;;;20.87;79.51;100023.09;5076336;28;20267;-41
2023/11/09 01:04:19;;;;;;;2.33;1.00;;;;;;;20.85;79.74;100036.38;5078300;28;20110;-40
2023/11/09 01:06:44;;;;;;;2.38;1.05;;;;;;;20.85;79.85;100033.59;5082430;28;20565;-40
2023/11/09 01:09:10;;;;;;;1.90;0.98;;;;;;;20.83;79.80;100030.34;5076058;28;20430;-41
2023/11/09 01:11:37;;;;;;;1.35;1.13;;;;;;;20.83;79.52;100038.59;5071161;28;20026;-40
2023/11/09 01:14:03;;;;;;;1.42;1.15;;;;;;;20.82;79.73;100040.56;5071663;28;20024;-41
2023/11/09 01:16:28;;;;;;;3.72;1.10;;;;;;;20.82;79.54;100040.56;5079923;28;20024;-41
2023/11/09 01:18:53;;;;;;;1.92;1.25;;;;;;;20.82;79.55;100039.72;5075848;28;20020;-41
2023/11/09 01:21:19;;;;;;;1.65;0.90;;;;;;;20.83;79.68;100053.22;5082612;28;20189;-41
2023/11/09 01:23:44;;;;;;;0.98;0.98;;;;;;;20.81;79.95;100049.94;5069752;28;20583;-41
2023/11/09 01:26:10;;;;;;;1.80;1.00;;;;;;;20.81;79.48;100049.94;5082674;28;20032;-41
2023/11/09 01:28:35;;;;;;;1.00;0.90;;;;;;;20.82;79.48;100051.56;5074959;28;20066;-41
2023/11/09 01:31:02;;;;;;;2.00;1.23;;;;;;;20.83;79.47;100036.69;5072354;28;20028;-41
2023/11/09 01:33:28;;;;;;;1.63;0.98;;;;;;;20.84;79.65;100023.72;5077960;28;20079;-40
2023/11/09 01:35:54;;;;;;;2.25;1.13;;;;;;;20.84;79.48;99987.91;5074793;28;20045;-41
2023/11/09 01:38:19;;;;;;;1.63;0.95;;;;;;;20.83;79.50;99945.81;5083313;28;20032;-41
2023/11/09 01:40:53;;;;;;;0.85;0.85;;;;;;;20.83;79.64;99928.47;5076924;28;20618;-40
2023/11/09 01:43:19;;;;;;;0.82;0.82;;;;;;;20.82;79.68;99922.16;5072943;28;20086;-41
2023/11/09 01:45:45;;;;;;;0.90;0.90;;;;;;;20.82;79.38;99924.06;5070272;28;20020;-41
2023/11/09 01:48:11;;;;;;;1.48;0.88;;;;;;;20.80;79.79;99951.94;5072018;28;20032;-41
2023/11/09 01:50:37;;;;;;;2.28;1.10;;;;;;;20.79;79.64;99969.59;5077281;28;20032;-40
2023/11/09 01:53:03;;;;;;;1.00;0.90;;;;;;;20.79;79.46;100004.59;5076189;28;20527;-53
2023/11/09 01:55:30;;;;;;;1.05;1.00;;;;;;;20.79;79.67;100010.09;5084157;28;20512;-51
2023/11/09 01:57:55;;;;;;;1.75;1.00;;;;;;;20.79;79.50;100018.34;5084831;28;20024;-50
2023/11/09 02:00:21;;;;;;;1.75;1.17;;;;;;;20.78;79.70;100024.97;5085152;28;20031;-50
2023/11/09 02:02:52;;;;;;;1.00;0.90;;;;;;;20.79;79.57;100037.63;5075274;28;20036;-50
2023/11/09 02:05:18;;;;;;;1.55;1.10;;;;;;;20.77;79.62;100028.84;5077777;28;20504;-51
2023/11/09 02:07:43;;;;;;;1.30;0.95;;;;;;;20.76;79.63;100028.06;5080032;28;20031;-43
2023/11/09 02:10:11;;;;;;;2.25;1.10;;;;;;;20.76;79.79;100018.97;5078962;28;20099;-40
2023/11/09 02:12:37;;;;;;;1.67;1.00;;;;;;;20.76;79.50;100025.31;5071231;28;20035;-41
2023/11/09 02:15:03;;;;;;;0.82;0.80;;;;;;;20.77;79.56;100015.09;5075783;28;20024;-40
2023/11/09 02:17:29;;;;;;;1.20;0.90;;;;;;;20.78;79.19;100024.97;5071452;28;20033;-51
2023/11/09 02:19:54;;;;;;;2.08;0.88;;;;;;;20.78;79.18;100016.72;5081939;28;20036;-52
2023/11/09 02:22:19;;;;;;;1.10;0.90;;;;;;;20.77;79.09;100009.59;5079759;28;20028;-53
2023/11/09 02:24:47;;;;;;;1.00;0.90;;;;;;;20.77;79.15;100015.09;5058234;28;20032;-51
2023/11/09 02:27:12;;;;;;;1.50;0.93;;;;;;;20.76;79.34;100016.22;5082252;28;20028;-51
2023/11/09 02:29:41;;;;;;;1.15;0.90;;;;;;;20.76;79.51;100013.47;5083117;28;20023;-41
2023/11/09 02:32:06;;;;;;;1.15;0.80;;;;;;;20.74;79.19;100012.97;5075020;28;20121;-40
2023/11/09 02:34:37;;;;;;;0.85;0.85;;;;;;;20.74;79.26;100004.72;5076670;28;20107;-42
2023/11/09 02:37:05;;;;;;;1.02;0.90;;;;;;;20.72;79.25;100001.47;5073009;28;20365;-41
2023/11/09 02:39:30;;;;;;;1.00;0.85;;;;;;;20.71;79.62;99997.88;5074285;28;20024;-40
2023/11/09 02:41:56;;;;;;;2.20;0.80;;;;;;;20.70;79.66;99996.25;5081602;28;20039;-41
2023/11/09 02:44:21;;;;;;;2.17;0.80;;;;;;;20.69;79.47;100003.69;5071829;28;20032;-40
2023/11/09 02:46:46;;;;;;;2.35;0.90;;;;;;;20.67;79.61;99994.09;5076457;28;20028;-40
2023/11/09 02:49:12;;;;;;;1.00;0.90;;;;;;;20.66;79.26;99985.06;5082886;28;20065;-41
2023/11/09 02:51:37;;;;;;;1.38;0.90;;;;;;;20.66;79.28;99987.81;5083709;28;20047;-41
2023/11/09 02:54:03;;;;;;;1.75;0.77;;;;;;;20.65;79.65;100007.41;5069197;28;20159;-50
2023/11/09 02:56:29;;;;;;;2.22;0.90;;;;;;;20.63;79.43;100002.19;5080668;28;20051;-49
2023/11/09 02:58:54;;;;;;;1.25;1.00;;;;;;;20.64;79.29;100011.28;5069591;28;20431;-49
2023/11/09 03:01:20;;;;;;;1.52;1.10;;;;;;;20.64;79.63;100011.28;5077434;28;20480;-51
2023/11/09 03:03:46;;;;;;;1.90;1.00;;;;;;;20.63;79.38;100018.69;5080352;28;20028;-50
2023/11/09 03:06:12;;;;;;;1.13;0.85;;;;;;;20.61;79.46;100015.47;5084433;28;20055;-50
2023/11/09 03:08:37;;;;;;;1.45;0.98;;;;;;;20.59;79.39;100003.94;5075498;28;20119;-50
2023/11/09 03:11:03;;;;;;;1.27;0.95;;;;;;;20.60;79.44;100013.84;5077147;28;20116;-49
2023/11/09 03:13:28;;;;;;;0.70;0.70;;;;;;;20.59;79.63;100016.88;5081251;28;20028;-52
2023/11/09 03:15:54;;;;;;;1.77;1.20;;;;;;;20.58;79.67;100013.34;5085262;28;20028;-50
2023/11/09 03:18:19;;;;;;;1.70;1.10;;;;;;;20.59;79.40;100000.38;5071490;28;20050;-51
2023/11/09 03:20:45;;;;;;;1.08;0.77;;;;;;;20.55;79.57;99994.72;5079097;28;20449;-42
2023/11/09 03:23:10;;;;;;;1.60;1.10;;;;;;;20.56;79.67;99998.25;5077392;28;20085;-41
2023/11/09 03:25:37;;;;;;;2.53;0.95;;;;;;;20.55;79.66;99999.38;5079970;28;20064;-41
2023/11/09 03:28:02;;;;;;;3.35;1.20;;;;;;;20.54;79.58;100004.09;5081297;28;20032;-41
2023/11/09 03:30:30;;;;;;;2.45;1.00;;;;;;;20.54;79.45;100012.34;5077888;28;20383;-52
2023/11/09 03:32:56;;;;;;;1.42;0.90;;;;;;;20.53;79.60;100013.47;5077460;28;20025;-50
2023/11/09 03:35:21;;;;;;;2.22;1.10;;;;;;;20.53;79.25;100016.22;5072368;28;20512;-41
2023/11/09 03:37:47;;;;;;;3.88;1.10;;;;;;;20.52;79.25;100036.63;5073502;28;20062;-42
2023/11/09 03:40:12;;;;;;;1.65;1.02;;;;;;;20.50;79.40;100039.69;5076479;28;20047;-41
2023/11/09 03:42:38;;;;;;;1.92;0.98;;;;;;;20.48;79.52;100033.66;5081281;28;20054;-42
2023/11/09 03:45:04;;;;;;;1.33;0.77;;;;;;;20.48;79.56;100032.88;5066736;28;20024;-42
2023/11/09 03:47:29;;;;;;;1.02;0.93;;;;;;;20.48;79.73;100041.13;5077356;28;20052;-42
2023/11/09 03:49:54;;;;;;;1.75;1.00;;;;;;;20.45;79.48;100028.81;5082569;28;20093;-42
2023/11/09 03:52:20;;;;;;;2.13;1.00;;;;;;;20.47;79.51;100025.75;5083483;28;20028;-42
2023/11/09 03:54:45;;;;;;;2.40;1.00;;;;;;;20.46;79.74;100032.34;5083221;28;20114;-42
2023/11/09 03:57:11;;;;;;;6.95;1.48;;;;;;;20.47;80.13;100022.97;5081847;28;20569;-42
2023/11/09 03:59:36;;;;;;;3.03;1.08;;;;;;;20.47;79.95;100022.97;5083116;28;20415;-41
2023/11/09 04:02:01;;;;;;;2.30;1.02;;;;;;;20.47;79.64;100020.22;5079274;28;20506;-42
2023/11/09 04:04:27;;;;;;;1.55;1.00;;;;;;;20.46;80.02;100030.41;5083643;28;20025;-41
2023/11/09 04:06:52;;;;;;;2.40;1.33;;;;;;;20.47;80.06;100020.22;5081032;28;20021;-42
2023/11/09 04:09:21;;;;;;;1.88;1.02;;;;;;;20.46;79.50;100027.66;5072578;28;20023;-41
2023/11/09 04:11:47;;;;;;;3.83;1.67;;;;;;;20.46;79.86;100026.84;5075806;28;20052;-42
2023/11/09 04:14:12;;;;;;;1.63;1.00;;;;;;;20.46;79.88;100026.84;5077274;28;20305;-42
2023/11/09 04:16:38;;;;;;;3.20;1.30;;;;;;;20.45;79.73;100037.06;5075747;28;20119;-41
2023/11/09 04:19:03;;;;;;;4.00;1.25;;;;;;;20.44;79.40;100035.44;5074403;28;20021;-42
2023/11/09 04:21:29;;;;;;;2.60;1.25;;;;;;;20.44;79.62;100042.84;5078569;28;20616;-42
2023/11/09 04:23:54;;;;;;;2.25;1.20;;;;;;;20.43;79.66;100039.31;5084348;28;20031;-42
2023/11/09 04:26:20;;;;;;;2.45;1.08;;;;;;;20.43;79.68;100038.47;5077979;28;20531;-42
2023/11/09 04:28:45;;;;;;;3.30;1.38;;;;;;;20.43;79.80;100039.31;5069414;28;20544;-41
2023/11/09 04:31:11;;;;;;;3.10;1.40;;;;;;;20.43;79.72;100030.22;5083465;28;20035;-42
2023/11/09 04:33:37;;;;;;;1.83;1.30;;;;;;;20.43;79.96;100027.47;5075799;28;20112;-42
2023/11/09 04:36:08;;;;;;;2.35;1.13;;;;;;;20.42;79.71;100023.91;5078604;28;20468;-42
2023/11/09 04:38:38;;;;;;;3.00;1.50;;;;;;;20.42;79.47;100028.63;5080340;28;20020;-42
2023/11/09 04:41:09;;;;;;;2.53;1.30;;;;;;;20.41;79.38;100030.53;5080901;28;20020;-42
2023/11/09 04:43:35;;;;;;;3.67;1.20;;;;;;;20.40;79.83;100033.63;5075452;28;20016;-42
2023/11/09 04:46:05;;;;;;;1.75;1.20;;;;;;;20.40;79.97;100041.88;5082117;28;20020;-42
2023/11/09 04:48:32;;;;;;;3.75;1.25;;;;;;;20.38;80.00;100038.59;5081654;28;20051;-42
2023/11/09 04:51:01;;;;;;;3.58;1.50;;;;;;;20.38;79.75;100038.59;5073913;28;20499;-42
2023/11/09 04:53:30;;;;;;;4.40;1.40;;;;;;;20.34;79.90;100031.00;5089308;28;20091;-42
2023/11/09 04:56:04;;;;;;;3.22;1.52;;;;;;;20.34;79.82;100022.75;5073412;28;20021;-42
2023/11/09 04:58:47;;;;;;;3.60;1.38;;;;;;;20.35;80.01;100029.88;5085328;28;20266;-51
2023/11/09 05:06:55;;;;;;;3.50;1.48;;;;;;;20.34;79.70;100025.50;5084085;28;20051;-50
2023/11/09 05:09:24;;;;;;;2.75;1.38;;;;;;;20.34;79.54;100022.75;5076772;28;20047;-51
2023/11/09 05:11:50;;;;;;;3.15;1.55;;;;;;;20.33;79.47;100023.03;5085815;28;20534;-51
2023/11/09 05:14:16;;;;;;;3.20;1.40;;;;;;;20.31;79.78;100026.09;5080099;28;20704;-51
2023/11/09 05:16:41;;;;;;;2.42;1.38;;;;;;;20.31;79.56;100026.09;5087376;28;20024;-54
2023/11/09 05:19:07;;;;;;;3.67;1.60;;;;;;;20.31;79.66;100028.06;5085801;28;20032;-54
2023/11/09 05:21:33;;;;;;;3.63;1.55;;;;;;;20.29;79.93;100028.34;5076094;28;20024;-42
2023/11/09 05:23:58;;;;;;;2.17;1.20;;;;;;;20.29;79.86;100036.59;5085254;28;20070;-42
2023/11/09 05:26:27;;;;;;;2.28;1.35;;;;;;;20.28;79.39;100047.91;5082591;28;20016;-42
2023/11/09 05:28:55;;;;;;;3.53;1.70;;;;;;;20.28;79.82;100057.00;5073280;28;20040;-42
2023/11/09 05:31:23;;;;;;;6.13;1.70;;;;;;;20.28;79.40;100058.94;5077014;28;20291;-42
2023/11/09 05:33:50;;;;;;;2.75;1.38;;;;;;;20.28;79.53;100054.25;5079711;28;20036;-40
2023/11/09 05:36:16;;;;;;;2.55;1.52;;;;;;;20.27;79.62;100057.28;5076850;28;20058;-41
2023/11/09 05:38:42;;;;;;;2.92;1.60;;;;;;;20.27;79.64;100046.28;5066778;28;20056;-40
2023/11/09 05:41:07;;;;;;;3.25;1.70;;;;;;;20.27;80.00;100038.88;5079669;28;20467;-41
2023/11/09 05:43:32;;;;;;;3.45;1.60;;;;;;;20.27;79.82;100040.78;5074089;28;20073;-41
2023/11/09 05:45:58;;;;;;;3.90;1.40;;;;;;;20.26;79.88;100048.25;5071384;28;20024;-41
2023/11/09 05:48:24;;;;;;;2.30;1.42;;;;;;;20.26;79.59;100053.75;5083176;28;20043;-41
2023/11/09 05:50:50;;;;;;;2.28;1.40;;;;;;;20.25;79.52;100041.09;5077501;28;20424;-41
2023/11/09 05:53:16;;;;;;;3.13;1.67;;;;;;;20.25;79.96;100054.84;5073396;28;20024;-41
2023/11/09 05:55:41;;;;;;;2.78;1.50;;;;;;;20.24;79.52;100050.47;5071737;28;20032;-41
2023/11/09 05:58:08;;;;;;;4.10;1.67;;;;;;;20.24;79.52;100052.44;5083327;28;20028;-41
2023/11/09 06:00:34;;;;;;;3.22;1.63;;;;;;;20.23;79.44;100054.34;5079282;28;20034;-41
2023/11/09 06:02:59;;;;;;;4.15;2.05;;;;;;;20.24;79.68;100055.19;5075325;28;20135;-41
2023/11/09 06:05:24;;;;;;;4.32;2.20;;;;;;;20.22;79.50;100063.75;5075706;28;20040;-41
2023/11/09 06:07:52;;;;;;;4.32;1.60;;;;;;;20.21;79.35;100059.38;5072686;28;20040;-41
2023/11/09 06:10:18;;;;;;;4.63;1.65;;;;;;;20.19;79.36;100062.41;5078041;28;20035;-41
2023/11/09 06:12:43;;;;;;;5.20;1.70;;;;;;;20.19;79.47;100062.41;5074873;28;20028;-40
2023/11/09 06:15:09;;;;;;;4.80;1.83;;;;;;;20.19;79.60;100064.34;5080835;28;20406;-41
2023/11/09 06:17:36;;;;;;;5.03;1.67;;;;;;;20.18;79.86;100076.47;5082921;28;20130;-49
2023/11/09 06:20:05;;;;;;;4.90;1.63;;;;;;;20.18;79.70;100073.72;5084125;28;20271;-52
2023/11/09 06:22:30;;;;;;;3.15;1.50;;;;;;;20.19;79.84;100069.88;5080451;28;20083;-50
2023/11/09 06:24:55;;;;;;;3.72;1.48;;;;;;;20.24;79.78;100074.44;5081538;28;20082;-49
2023/11/09 06:27:21;;;;;;;3.97;1.63;;;;;;;20.31;79.25;100066.56;5084389;28;20034;-50
2023/11/09 06:29:47;;;;;;;5.38;1.73;;;;;;;20.40;79.34;100072.94;5074609;28;20073;-49
2023/11/09 06:32:13;;;;;;;4.18;1.70;;;;;;;20.46;78.95;100068.94;5076519;28;20032;-50
2023/11/09 06:34:39;;;;;;;2.58;1.40;;;;;;;20.56;78.95;100078.09;5073518;28;20016;-41
2023/11/09 06:37:05;;;;;;;5.25;1.90;;;;;;;20.64;78.42;100075.41;5082042;28;20043;-49
2023/11/09 06:39:30;;;;;;;3.38;1.75;;;;;;;20.74;78.11;100068.06;5083419;28;20020;-50
2023/11/09 06:41:55;;;;;;;4.20;1.70;;;;;;;20.87;77.69;100080.09;5087123;28;20488;-50
2023/11/09 06:44:21;;;;;;;5.95;1.90;;;;;;;20.97;77.66;100079.84;5085019;28;20032;-52
2023/11/09 06:46:46;;;;;;;4.60;1.70;;;;;;;21.10;77.57;100084.47;5082297;28;20039;-51
2023/11/09 06:49:12;;;;;;;3.17;1.73;;;;;;;21.24;77.18;100083.53;5073118;28;20384;-53
2023/11/09 06:51:37;;;;;;;4.38;1.70;;;;;;;21.38;76.65;100091.72;5080679;28;20127;-52
2023/11/09 06:54:06;;;;;;;3.33;1.80;;;;;;;21.53;76.46;100084.97;5075396;28;20020;-52
2023/11/09 06:56:33;;;;;;;3.20;1.50;;;;;;;21.66;75.66;100086.03;5078175;28;20028;-50
2023/11/09 06:58:59;;;;;;;4.75;2.03;;;;;;;21.78;75.48;100086.22;5084169;28;20028;-50
2023/11/09 07:01:25;;;;;;;3.63;1.80;;;;;;;21.87;74.94;100087.03;5075383;28;20031;-51
2023/11/09 07:03:51;;;;;;;4.22;1.80;;;;;;;21.99;74.91;100091.94;5083955;28;20039;-51
2023/11/09 07:06:22;;;;;;;3.35;1.67;;;;;;;22.07;74.70;100087.53;5092363;28;20055;-50
2023/11/09 07:08:49;;;;;;;2.85;1.77;;;;;;;22.15;74.41;100092.28;5083717;28;20089;-51
2023/11/09 07:11:15;;;;;;;3.60;2.00;;;;;;;22.24;74.43;100095.03;5071372;28;20020;-54
2023/11/09 07:13:41;;;;;;;4.40;1.90;;;;;;;22.31;73.99;100100.88;5078362;28;20115;-51
2023/11/09 07:16:07;;;;;;;4.40;1.92;;;;;;;22.39;73.79;100099.28;5083226;28;20111;-52
2023/11/09 07:18:33;;;;;;;4.95;1.80;;;;;;;22.46;73.63;100098.81;5084995;28;20123;-53
2023/11/09 07:20:58;;;;;;;3.95;2.00;;;;;;;22.51;73.19;100102.22;5084988;28;20047;-51
2023/11/09 07:23:24;;;;;;;3.80;2.13;;;;;;;22.53;73.49;100104.66;5082843;28;20028;-53
2023/11/09 07:25:53;;;;;;;4.38;2.08;;;;;;;22.53;73.44;100099.16;5081420;28;20060;-53
2023/11/09 07:28:20;;;;;;;3.45;1.70;;;;;;;22.51;73.40;100096.69;5077289;28;20067;-54
2023/11/09 07:30:48;;;;;;;3.38;1.80;;;;;;;22.50;73.42;100099.78;5082172;28;20095;-50
2023/11/09 07:33:14;;;;;;;5.65;1.95;;;;;;;22.49;73.05;100103.69;5079357;28;20154;-53
2023/11/09 07:35:40;;;;;;;5.60;2.17;;;;;;;22.46;73.41;100101.56;5077406;28;20027;-52
2023/11/09 07:38:06;;;;;;;4.38;2.20;;;;;;;22.42;73.38;100102.22;5085113;28;20154;-50
2023/11/09 07:40:32;;;;;;;5.55;2.03;;;;;;;22.40;73.02;100106.44;5084743;28;20032;-50
2023/11/09 07:42:58;;;;;;;4.72;2.30;;;;;;;22.37;73.42;100107.06;5084777;28;20119;-51
2023/11/09 07:45:24;;;;;;;4.32;2.08;;;;;;;22.35;73.33;100114.84;5077044;28;20196;-51
2023/11/09 07:47:49;;;;;;;3.58;1.90;;;;;;;22.33;73.21;100108.84;5077563;28;20039;-53
2023/11/09 07:50:16;;;;;;;3.97;1.90;;;;;;;22.32;72.91;100118.25;5080023;28;20024;-53
2023/11/09 07:52:41;;;;;;;6.53;2.42;;;;;;;22.29;73.00;100111.44;5073174;28;20036;-53
2023/11/09 07:55:07;;;;;;;3.78;1.90;;;;;;;22.26;73.08;100107.38;5079519;28;20082;-53
2023/11/09 07:57:34;;;;;;;4.85;1.95;;;;;;;22.24;72.95;100115.19;5080824;28;20066;-52
2023/11/09 08:00:00;;;;;;;5.88;2.25;;;;;;;22.21;73.12;100115.81;5070746;28;20051;-54
2023/11/09 08:02:26;;;;;;;5.75;2.22;;;;;;;22.17;73.09;100106.56;5069884;28;20483;-51
2023/11/09 08:04:54;;;;;;;8.68;2.40;;;;;;;22.16;73.08;100112.38;5069559;28;20451;-41
2023/11/09 08:07:21;;;;;;;5.05;2.00;;;;;;;22.14;73.58;100109.16;5073768;28;20027;-41
2023/11/09 08:09:47;;;;;;;3.70;2.15;;;;;;;22.12;73.61;100112.22;5079392;28;20101;-41
2023/11/09 08:12:12;;;;;;;5.78;2.35;;;;;;;22.07;73.39;100099.41;5086237;28;20487;-41
2023/11/09 08:14:38;;;;;;;4.97;2.47;;;;;;;22.04;73.71;100104.75;5087448;28;20111;-41
2023/11/09 08:17:03;;;;;;;5.78;2.30;;;;;;;22.00;73.72;100098.25;5084948;28;20028;-41
2023/11/09 08:19:29;;;;;;;5.50;1.83;;;;;;;21.94;73.83;100095.66;5078625;28;20051;-41
2023/11/09 08:21:54;;;;;;;5.47;2.25;;;;;;;21.91;73.90;100092.72;5083266;28;20486;-41
2023/11/09 08:24:20;;;;;;;5.85;2.38;;;;;;;21.87;74.36;100098.06;5084213;28;20032;-41
2023/11/09 08:26:46;;;;;;;7.40;2.30;;;;;;;21.84;74.42;100097.88;5077894;28;20462;-41
2023/11/09 08:29:12;;;;;;;5.03;2.00;;;;;;;21.80;74.41;100109.59;5081228;28;20028;-41
2023/11/09 08:31:38;;;;;;;6.63;2.17;;;;;;;21.78;74.21;100108.28;5077098;28;20385;-41
2023/11/09 08:34:04;;;;;;;7.38;2.25;;;;;;;21.75;74.25;100106.97;5077227;28;20032;-42
2023/11/09 08:36:30;;;;;;;8.27;2.20;;;;;;;21.72;74.74;100102.09;5077630;28;20770;-41
2023/11/09 08:38:55;;;;;;;7.43;2.47;;;;;;;21.69;74.72;100102.75;5073056;28;20024;-41
2023/11/09 08:41:21;;;;;;;6.35;2.40;;;;;;;21.68;74.57;100105.78;5069802;28;20024;-42
2023/11/09 08:43:49;;;;;;;10.68;2.20;;;;;;;21.66;74.77;100108.09;5069942;28;20028;-41
2023/11/09 08:46:15;;;;;;;4.68;2.10;;;;;;;21.63;74.98;100101.22;5078560;28;20036;-41
2023/11/09 08:48:41;;;;;;;7.80;2.35;;;;;;;21.62;74.63;100094.13;5076904;28;20231;-42
2023/11/09 08:51:10;;;;;;;7.78;2.60;;;;;;;21.62;75.06;100097.69;5074709;28;20023;-41
2023/11/09 08:53:36;;;;;;;15.18;2.85;;;;;;;21.60;74.83;100097.16;5073692;28;20412;-41
2023/11/09 08:56:02;;;;;;;7.35;2.30;;;;;;;21.60;74.52;100099.13;5068879;28;20103;-42
2023/11/09 08:58:28;;;;;;;9.02;2.53;;;;;;;21.59;74.40;100092.00;5075404;28;20075;-41
2023/11/09 09:01:01;;;;;;;7.15;2.35;;;;;;;21.58;74.95;100095.88;5079683;28;20115;-41
2023/11/09 09:03:26;;;;;;;6.97;2.28;;;;;;;21.57;74.83;100089.56;5078901;28;20476;-41
2023/11/09 09:05:52;;;;;;;9.25;2.30;;;;;;;21.56;74.85;100098.94;5077748;28;20052;-41
2023/11/09 09:08:17;;;;;;;7.78;2.42;;;;;;;21.55;74.42;100091.78;5081237;28;20108;-43
2023/11/09 09:10:43;;;;;;;25.50;3.00;;;;;;;21.56;75.23;100089.84;5070730;28;20043;-40
2023/11/09 09:13:08;;;;;;;57.70;6.10;;;;;;;21.61;75.02;100092.50;5079987;28;20510;-40
2023/11/09 09:15:35;;;;;;;31.30;4.43;;;;;;;21.64;74.72;100089.91;5080133;28;20021;-41
2023/11/09 09:18:00;;;;;;;17.58;3.72;;;;;;;21.70;74.64;100089.75;5083352;28;20835;-47
2023/11/09 09:20:27;;;;;;;13.95;2.60;;;;;;;21.75;74.32;100095.94;5075121;28;20043;-41
2023/11/09 09:22:55;;;;;;;14.25;3.05;;;;;;;21.79;73.74;100087.84;5080615;28;20038;-45
2023/11/09 09:25:22;;;;;;;18.08;3.55;;;;;;;21.83;73.43;100086.06;5078577;28;20037;-45
2023/11/09 09:27:49;;;;;;;160.40;10.00;;;;;;;21.85;73.45;100074.69;5085046;28;20046;-46
2023/11/09 09:30:18;;;;;;;18.95;3.30;;;;;;;21.88;73.53;100071.31;5082783;28;20023;-42
2023/11/09 09:32:45;;;;;;;9.98;3.13;;;;;;;21.91;73.16;100068.72;5086552;28;20360;-41
2023/11/09 09:35:11;;;;;;;10.57;3.15;;;;;;;21.94;73.16;100076.34;5075765;28;20034;-45
2023/11/09 09:37:38;;;;;;;11.52;3.15;;;;;;;21.97;73.01;100066.59;5074124;28;20035;-46
2023/11/09 09:40:19;;;;;;;8.65;2.90;;;;;;;22.00;72.76;100059.63;5071154;28;20052;-45
2023/11/09 09:42:46;;;;;;;10.82;2.92;;;;;;;22.03;72.72;100073.59;5073951;28;20071;-45
2023/11/09 09:45:21;;;;;;;8.50;3.00;;;;;;;22.04;72.48;100063.38;5071850;28;20645;-47
2023/11/09 09:47:49;;;;;;;10.48;2.75;;;;;;;22.07;72.44;100068.22;5074509;28;20032;-47
2023/11/09 09:50:22;;;;;;;8.80;3.13;;;;;;;22.09;72.27;100077.00;5078321;28;20028;-46
2023/11/09 09:52:50;;;;;;;10.20;2.78;;;;;;;22.10;72.07;100084.97;5087357;28;20020;-48
2023/11/09 09:55:18;;;;;;;8.52;2.65;;;;;;;22.10;71.67;100087.72;5069956;28;20024;-48
2023/11/09 09:57:44;;;;;;;7.47;3.03;;;;;;;22.10;71.91;100086.91;5076943;28;20040;-47
2023/11/09 10:00:13;;;;;;;11.32;2.72;;;;;;;22.10;71.85;100092.44;5079883;28;20032;-47
2023/11/09 10:02:40;;;;;;;7.78;2.85;;;;;;;22.10;71.89;100086.91;5075429;28;20031;-48
2023/11/09 10:05:12;;;;;;;11.18;3.10;;;;;;;22.09;71.55;100082.53;5087641;28;20033;-48
2023/11/09 10:08:04;;;;;;;9.57;3.20;;;;;;;22.09;71.56;100082.53;5088734;28;20031;-51
2023/11/09 10:10:44;;;;;;;10.50;2.90;;;;;;;22.11;71.50;100091.31;5079615;28;20066;-49
2023/11/09 10:13:13;;;;;;;6.85;3.17;;;;;;;22.11;71.53;100083.81;5082091;28;20036;-49
2023/11/09 10:15:40;;;;;;;11.23;3.20;;;;;;;22.11;71.64;100089.34;5080683;28;20052;-42
2023/11/09 10:18:06;;;;;;;11.68;3.55;;;;;;;22.13;71.67;100086.25;5083618;28;20134;-43
2023/11/09 10:20:32;;;;;;;7.53;2.90;;;;;;;22.12;71.18;100082.69;5074748;28;20033;-49
2023/11/09 10:22:59;;;;;;;11.35;2.60;;;;;;;22.14;71.28;100089.84;5072257;28;20029;-46
2023/11/09 10:25:30;;;;;;;10.60;2.85;;;;;;;22.13;71.12;100091.78;5069221;28;20024;-45
2023/11/09 10:28:00;;;;;;;10.57;3.10;;;;;;;22.14;71.28;100098.13;5071349;28;20067;-44
2023/11/09 10:30:27;;;;;;;9.30;3.15;;;;;;;22.14;71.15;100089.84;5081420;28;20030;-47
2023/11/09 10:33:03;;;;;;;8.13;2.85;;;;;;;22.13;70.99;100083.50;5079044;28;20074;-47
2023/11/09 10:35:29;;;;;;;6.97;2.67;;;;;;;22.14;71.05;100084.31;5077950;28;20103;-47
2023/11/09 10:37:57;;;;;;;7.55;2.80;;;;;;;22.13;70.78;100080.75;5074703;28;20019;-47
2023/11/09 10:40:23;;;;;;;7.22;2.78;;;;;;;22.14;70.79;100076.03;5076794;28;20139;-47
2023/11/09 10:42:50;;;;;;;8.07;2.88;;;;;;;22.13;70.47;100064.19;5081810;28;20030;-44
2023/11/09 10:45:16;;;;;;;11.98;3.42;;;;;;;22.14;70.69;100062.25;5081654;28;20024;-47
2023/11/09 10:47:44;;;;;;;8.45;3.10;;;;;;;22.14;70.65;100059.50;5083294;28;20043;-46
2023/11/09 10:50:18;;;;;;;20.52;2.88;;;;;;;22.15;71.00;100056.41;5075199;28;20506;-46
2023/11/09 10:52:43;;;;;;;10.45;2.92;;;;;;;22.17;70.57;100053.31;5077103;28;20036;-36
2023/11/09 10:55:16;;;;;;;8.13;2.78;;;;;;;22.17;70.34;100045.84;5073141;28;20074;-43
2023/11/09 10:57:43;;;;;;;9.40;2.83;;;;;;;22.18;70.28;100036.44;5079126;28;20376;-44
2023/11/09 11:00:25;;;;;;;9.68;2.80;;;;;;;22.18;70.41;100036.44;5084274;28;20024;-44
2023/11/09 11:03:04;;;;;;;8.27;2.85;;;;;;;22.19;70.07;100040.00;5070284;28;20036;-46
2023/11/09 11:05:30;;;;;;;6.90;2.75;;;;;;;22.19;70.06;100038.03;5073495;28;20036;-46
2023/11/09 11:07:59;;;;;;;11.77;3.38;;;;;;;22.19;69.89;100028.97;5078463;28;20097;-44
2023/11/09 11:10:26;;;;;;;8.00;3.03;;;;;;;22.17;70.38;100034.81;5081433;28;20024;-46
2023/11/09 11:12:53;;;;;;;8.88;3.20;;;;;;;22.18;70.16;100024.56;5086819;28;20500;-49
2023/11/09 11:15:20;;;;;;;14.13;4.10;;;;;;;22.19;70.54;100020.69;5081299;28;20016;-54
2023/11/09 11:18:17;;;;;;;40.72;10.57;;;;;;;22.17;71.03;100009.97;5088145;28;20104;-48
2023/11/09 11:20:58;;;;;;;43.40;12.35;;;;;;;22.20;70.71;100006.56;5076861;28;20040;-50
2023/11/09 11:23:45;;;;;;;32.90;9.35;;;;;;;22.21;70.57;99994.38;5090049;28;20028;-46
2023/11/09 11:26:14;;;;;;;29.83;7.40;;;;;;;22.21;70.57;99988.06;5078988;28;20074;-49
2023/11/09 11:28:40;;;;;;;28.77;7.43;;;;;;;22.23;70.40;99988.53;5051199;28;20058;-47